Terminal Aerodrome Forecast
Issued by NWS

Home | Current Version | Previous Version | Text Only | Print | Product List | Glossary On
Versions: 1 2 3 4 5 6 7 8 9 10 11 12 13 14 15 16 17 18 19
000
FTUS44 KTSA 281700 RRA
TAFFYV
TAF
KFYV 281740Z 2818/0118 13005KT 3SM -SN BR BKN025
      TEMPO 2818/2822 1SM -SN BR OVC018
     FM282300 14003KT 2SM -SN BR OVC015
     FM010300 VRB03KT 4SM -SNPL BR OVC008
      TEMPO 0108/0112 1SM -FZRA BR OVC007
     FM011200 02003KT 2SM -FZDZ BR OVC005=

USA.gov is the U.S. government's official web portal to all federal, state and local government web resources and services.